Los Lunas ASC Data

Date Time Air Temperature Relative Humidity Dewpoint Windchill Heat Index Wind Speed Wind Dir. Rain Solar Radiation Soil Temperature
2m 2m 3m 3m 10cm
US/Mountain F % F F F MPH deg in MJ/m^2 F
max avg avg
2021-06-11 00:05:00 73.5 15.8 24.3 73.5 73.5 1.9 3.0 1.7 227.6 152.7 0.00 0.0000000 86.1
2021-06-11 00:10:00 72.9 16.1 24.2 72.9 72.9 1.5 3.8 2.0 246.8 222.2 0.00 0.0000000 86.0
2021-06-11 00:15:00 72.9 18.5 27.5 72.9 72.9 1.2 3.1 1.5 266.7 214.5 0.00 0.0000000 85.9
2021-06-11 00:20:00 72.5 15.5 23.0 72.5 72.5 0.0 1.3 0.2 248.0 275.4 0.00 0.0000000 85.8
2021-06-11 00:25:00 72.3 16.3 24.0 72.3 72.3 1.3 2.6 0.9 242.4 267.8 0.00 0.0000000 85.7
2021-06-11 00:30:00 71.6 18.2 26.0 71.6 71.6 1.2 3.5 1.5 140.7 78.1 0.00 0.0000000 85.6
2021-06-11 00:35:00 70.7 17.9 24.9 70.7 70.7 1.5 3.8 1.7 24.7 292.6 0.00 0.0000000 85.4
2021-06-11 00:40:00 70.1 17.7 24.2 70.1 70.1 1.0 1.5 0.5 98.7 134.8 0.00 0.0000000 85.3
2021-06-11 00:45:00 69.9 20.6 27.8 69.9 69.9 0.0 3.7 1.0 157.0 212.6 0.00 0.0000000 85.2
2021-06-11 00:50:00 69.4 19.7 26.2 69.4 69.4 0.0 0.0 0.0 174.1 0.0 0.00 0.0000000 85.1
2021-06-11 00:55:00 68.1 27.5 33.3 68.1 68.1 0.0 2.4 0.8 111.5 86.0 0.00 0.0000000 85.0
2021-06-11 01:00:00 67.4 22.4 27.6 67.4 67.4 1.7 1.7 0.7 217.5 201.9 0.00 0.0000000 84.9
2021-06-11 01:05:00 68.8 16.8 21.9 68.8 68.8 2.6 2.6 1.6 326.1 237.2 0.00 0.0000000 84.8
2021-06-11 01:10:00 74.0 12.7 19.5 74.0 74.0 5.5 6.0 2.8 283.0 267.3 0.00 0.0000000 84.7
2021-06-11 01:15:00 77.3 11.4 19.6 77.3 77.3 4.9 6.5 4.1 182.8 249.5 0.00 0.0000000 84.6
2021-06-11 01:20:00 79.2 10.5 19.1 79.2 79.2 5.1 5.1 4.0 24.6 264.6 0.00 0.0000000 84.5
2021-06-11 01:25:00 79.8 10.5 19.5 79.8 79.8 1.3 5.1 3.3 285.5 277.5 0.00 0.0000000 84.5
2021-06-11 01:30:00 79.0 11.8 21.6 79.0 79.0 3.3 4.4 2.8 336.6 259.1 0.00 0.0000000 84.3
2021-06-11 01:35:00 78.9 10.5 18.8 78.9 78.9 3.8 5.6 2.9 334.7 279.0 0.00 0.0000000 84.3
2021-06-11 01:40:00 79.1 10.6 19.1 79.1 79.1 3.3 6.3 3.3 288.3 279.9 0.00 0.0000000 84.2
2021-06-11 01:45:00 78.9 10.8 19.6 78.9 78.9 2.4 4.7 3.0 267.1 278.3 0.00 0.0000000 84.1
2021-06-11 01:50:00 78.7 10.8 19.4 78.7 78.7 0.0 3.7 1.7 311.1 277.8 0.00 0.0000000 83.9
2021-06-11 01:55:00 78.3 11.2 19.9 78.3 78.3 1.7 4.0 2.0 296.2 295.0 0.00 0.0000000 83.9
2021-06-11 02:00:00 77.8 11.3 19.6 77.8 77.8 1.2 3.5 2.0 268.6 306.9 0.00 0.0000000 83.8
2021-06-11 02:05:00 77.5 11.7 20.3 77.5 77.5 0.0 3.1 1.6 240.7 280.9 0.00 0.0000000 83.7
2021-06-11 02:10:00 76.7 12.7 21.6 76.7 76.7 1.2 2.4 0.8 236.6 251.2 0.00 0.0000000 83.6
2021-06-11 02:15:00 76.2 13.0 21.7 76.2 76.2 1.3 4.0 1.4 244.0 252.4 0.00 0.0000000 83.5
2021-06-11 02:20:00 75.9 12.6 20.8 75.9 75.9 1.2 3.1 1.4 266.2 256.9 0.00 0.0000000 83.4
2021-06-11 02:25:00 76.1 12.6 20.8 76.1 76.1 1.2 5.1 2.7 202.6 267.4 0.00 0.0000000 83.4
2021-06-11 02:30:00 76.0 12.5 20.6 76.0 76.0 3.5 3.7 2.2 283.0 279.9 0.00 0.0000000 83.2
2021-06-11 02:35:00 76.0 12.3 20.3 76.0 76.0 2.4 3.1 2.4 239.5 249.2 0.00 0.0000000 83.2
2021-06-11 02:40:00 75.8 12.9 21.3 75.8 75.8 2.1 4.4 2.1 187.0 271.4 0.00 0.0000000 83.1
2021-06-11 02:45:00 75.2 14.1 22.8 75.2 75.2 2.2 4.6 1.7 259.1 266.4 0.00 0.0000000 83.0
2021-06-11 02:50:00 75.1 13.4 21.5 75.1 75.1 4.4 4.6 2.1 270.6 252.7 0.00 0.0000000 82.9
2021-06-11 02:55:00 75.3 13.8 22.4 75.3 75.3 2.1 5.1 2.5 244.5 260.0 0.00 0.0000000 82.9
2021-06-11 03:00:00 75.1 13.6 22.1 75.1 75.1 2.8 3.3 2.3 235.7 247.8 0.00 0.0000000 82.8
2021-06-11 03:05:00 74.9 13.8 22.0 74.9 74.9 2.6 4.7 3.1 258.9 237.0 0.00 0.0000000 82.7
2021-06-11 03:10:00 74.5 13.6 21.5 74.5 74.5 2.8 4.6 2.7 288.0 253.0 0.00 0.0000000 82.6
2021-06-11 03:15:00 73.6 14.6 22.4 73.6 73.6 1.9 5.5 2.7 258.9 251.5 0.00 0.0000000 82.6
2021-06-11 03:20:00 73.3 14.6 22.2 73.3 73.3 2.8 5.1 3.0 215.5 239.5 0.00 0.0000000 82.5
2021-06-11 03:25:00 73.0 15.6 23.5 73.0 73.0 2.6 4.0 2.9 335.1 251.6 0.00 0.0000000 82.4
2021-06-11 03:30:00 72.8 14.7 22.0 72.8 72.8 1.2 4.6 2.2 312.6 267.2 0.00 0.0000000 82.3
2021-06-11 03:35:00 72.8 14.9 22.3 72.8 72.8 3.3 4.4 2.7 216.5 251.4 0.00 0.0000000 82.2
2021-06-11 03:40:00 72.8 15.3 22.9 72.8 72.8 2.4 4.7 3.1 259.5 249.6 0.00 0.0000000 82.1
2021-06-11 03:45:00 73.0 15.6 23.5 73.0 73.0 2.8 6.2 3.9 291.6 255.2 0.00 0.0000000 82.1
2021-06-11 03:50:00 73.3 15.0 22.9 73.3 73.3 5.5 6.7 3.9 223.9 262.4 0.00 0.0000000 82.0
2021-06-11 03:55:00 73.0 15.2 22.8 73.0 73.0 4.7 7.4 4.5 240.4 261.4 0.00 0.0000000 82.0
2021-06-11 04:00:00 72.6 15.7 23.4 72.6 72.6 4.4 7.1 3.9 274.9 272.1 0.00 0.0000000 81.9
2021-06-11 04:05:00 72.2 16.0 23.5 72.2 72.2 3.3 7.8 4.3 258.4 262.8 0.00 0.0000000 81.8
2021-06-11 04:10:00 71.9 15.7 22.8 71.9 71.9 5.1 6.9 3.3 239.4 247.4 0.00 0.0000000 81.8
2021-06-11 04:15:00 72.1 16.3 23.8 72.1 72.1 2.1 6.5 3.6 82.4 259.0 0.00 0.0000000 81.6
2021-06-11 04:20:00 72.1 16.0 23.4 72.1 72.1 5.8 6.2 3.7 227.4 254.2 0.00 0.0000000 81.6
2021-06-11 04:25:00 72.2 15.9 23.3 72.2 72.2 4.7 5.5 3.4 244.5 239.5 0.00 0.0000000 81.5
2021-06-11 04:30:00 71.7 16.3 23.6 71.7 71.7 2.6 5.5 3.5 255.8 252.5 0.00 0.0000000 81.4
2021-06-11 04:35:00 71.6 16.2 23.3 71.6 71.6 2.4 4.6 3.1 223.0 263.0 0.00 0.0000000 81.4
2021-06-11 04:40:00 71.5 16.2 23.2 71.5 71.5 4.0 6.5 3.3 327.1 281.9 0.00 0.0000000 81.3
2021-06-11 04:45:00 71.7 16.1 23.2 71.7 71.7 4.9 6.0 3.7 189.9 281.5 0.00 0.0000000 81.2
2021-06-11 04:50:00 71.5 15.9 22.8 71.5 71.5 3.5 5.8 3.3 286.7 285.7 0.00 0.0000000 81.2
2021-06-11 04:55:00 71.3 16.2 23.1 71.3 71.3 2.1 5.3 3.0 274.4 269.7 0.00 0.0000000 81.1
2021-06-11 05:00:00 71.3 17.0 24.2 71.3 71.3 2.4 3.1 1.6 75.5 334.8 0.00 0.0000000 81.0
2021-06-11 05:05:00 69.0 21.4 27.9 69.0 69.0 2.1 3.1 1.8 132.9 44.6 0.00 0.0000000 81.0
2021-06-11 05:10:00 68.0 21.1 26.6 68.0 68.0 0.0 1.9 0.4 136.8 89.6 0.00 0.0000000 80.9
2021-06-11 05:15:00 67.7 22.2 27.6 67.7 67.7 2.8 4.2 1.6 50.6 48.2 0.00 0.0000000 80.8
2021-06-11 05:20:00 69.2 17.3 22.9 69.2 69.2 3.3 5.1 2.4 77.8 74.6 0.00 0.0000000 80.7
2021-06-11 05:25:00 74.3 14.2 22.4 74.3 74.3 8.1 9.6 6.0 311.8 17.0 0.00 0.0000000 80.7
2021-06-11 05:30:00 76.2 13.8 23.1 76.2 76.2 9.7 13.9 8.4 256.1 296.6 0.00 0.0000000 80.6
2021-06-11 05:35:00 76.1 14.5 24.3 76.1 76.1 8.5 13.0 6.8 239.2 276.1 0.00 0.0000000 80.5
2021-06-11 05:40:00 75.3 14.8 24.1 75.3 75.3 2.2 6.5 3.7 300.5 274.2 0.00 0.0010000 80.5
2021-06-11 05:45:00 73.1 16.7 25.3 73.1 73.1 0.0 3.5 2.0 113.3 64.7 0.00 0.0030000 80.4
2021-06-11 05:50:00 73.8 15.0 23.3 73.8 73.8 9.0 12.8 4.6 298.0 34.3 0.00 0.0020000 80.3
2021-06-11 05:55:00 75.2 15.6 25.4 75.2 75.2 4.6 15.5 6.0 59.0 325.0 0.00 0.0030000 80.3
2021-06-11 06:00:00 69.5 20.7 27.5 69.5 69.5 0.0 5.5 2.4 125.0 117.1 0.00 0.0050000 80.2
2021-06-11 06:05:00 66.9 22.0 26.8 66.9 66.9 0.0 0.8 0.1 145.9 124.0 0.00 0.0090000 80.1
2021-06-11 06:10:00 65.1 23.2 26.6 65.1 65.1 0.0 2.2 0.6 129.1 144.0 0.00 0.0120000 80.1
2021-06-11 06:15:00 64.8 24.1 27.2 64.8 64.8 0.0 0.0 0.0 150.1 0.0 0.00 0.0130000 80.0
2021-06-11 06:20:00 64.1 26.0 28.5 64.1 64.1 1.3 2.2 1.3 215.4 203.5 0.00 0.0120000 79.9
2021-06-11 06:25:00 63.8 26.0 28.2 63.8 63.8 1.3 2.1 1.2 232.8 190.1 0.00 0.0100000 79.8
2021-06-11 06:30:00 63.2 28.2 29.8 63.2 63.2 0.0 2.1 0.4 235.6 256.5 0.00 0.0110000 79.8
2021-06-11 06:35:00 62.7 29.1 30.1 62.7 62.7 0.0 0.0 0.0 57.6 0.0 0.00 0.0140000 79.7
2021-06-11 06:40:00 62.1 31.3 31.4 62.1 62.1 0.0 0.0 0.0 239.3 0.0 0.00 0.0220000 79.6
2021-06-11 06:45:00 62.2 34.6 33.9 62.2 62.2 0.0 3.0 1.1 183.4 241.2 0.00 0.0230000 79.6
2021-06-11 06:50:00 61.8 32.0 31.6 61.8 61.8 0.0 0.0 0.0 77.4 0.0 0.00 0.1230000 79.5
2021-06-11 06:55:00 62.2 35.7 34.7 62.2 62.2 0.0 0.0 0.0 290.6 0.0 0.00 0.1410000 79.4
2021-06-11 07:00:00 62.7 33.9 33.9 62.7 62.7 0.0 0.0 0.0 237.6 0.0 0.00 0.1570000 79.3
2021-06-11 07:05:00 63.8 34.0 34.9 63.8 63.8 0.0 0.0 0.0 52.5 0.0 0.00 0.1720000 79.3
2021-06-11 07:10:00 64.9 26.8 29.9 64.9 64.9 0.0 0.0 0.0 340.3 0.0 0.00 0.1880000 79.2
2021-06-11 07:15:00 66.5 28.2 32.5 66.5 66.5 0.0 0.0 0.0 175.0 0.0 0.00 0.2020000 79.2
2021-06-11 07:20:00 68.2 30.6 36.1 68.2 68.2 0.0 0.0 0.0 122.0 0.0 0.00 0.2170000 79.1
2021-06-11 07:25:00 69.1 32.4 38.4 69.1 69.1 0.0 0.0 0.0 207.8 0.0 0.00 0.2340000 79.0
2021-06-11 07:30:00 70.8 25.8 34.0 70.8 70.8 0.0 0.0 0.0 179.9 0.0 0.00 0.2500000 79.0
2021-06-11 07:35:00 69.9 29.4 36.5 69.9 69.9 0.0 0.0 0.0 195.9 0.0 0.00 0.2660000 78.9
2021-06-11 07:40:00 71.3 23.6 32.3 71.3 71.3 0.0 0.0 0.0 71.5 0.0 0.00 0.2820000 78.9
2021-06-11 07:45:00 74.0 22.6 33.4 74.0 74.0 0.0 0.0 0.0 92.4 0.0 0.00 0.2990000 78.8
2021-06-11 07:50:00 74.7 23.2 34.6 74.7 74.7 0.0 0.0 0.0 9.1 0.0 0.00 0.3150000 78.7
2021-06-11 07:55:00 75.1 24.8 36.7 75.1 75.1 0.0 0.0 0.0 145.0 0.0 0.00 0.3300000 78.7
2021-06-11 08:00:00 73.9 28.0 38.8 73.9 73.9 0.0 0.0 0.0 129.2 0.0 0.00 0.3460000 78.6
2021-06-11 08:05:00 74.1 35.5 45.1 74.1 74.1 0.0 2.1 0.4 37.4 57.4 0.00 0.3580000 78.6
2021-06-11 08:10:00 74.0 23.0 33.9 74.0 74.0 1.9 1.9 0.3 216.9 192.7 0.00 0.3780000 78.5
2021-06-11 08:15:00 75.3 26.3 38.4 75.3 75.3 0.0 1.5 0.2 48.1 187.4 0.00 0.3960000 78.5
2021-06-11 08:20:00 75.3 30.7 42.3 75.3 75.3 0.8 2.2 0.7 37.4 38.2 0.00 0.4100000 78.5
2021-06-11 08:25:00 75.8 26.7 39.2 75.8 75.8 0.0 1.5 0.3 108.2 46.5 0.00 0.4290000 78.4
2021-06-11 08:30:00 76.6 30.9 43.6 76.6 76.6 1.3 1.3 0.2 73.7 65.4 0.00 0.4450000 78.4
2021-06-11 08:35:00 77.1 24.1 37.6 77.1 77.1 0.0 1.7 0.8 106.3 62.5 0.00 0.4610000 78.4
2021-06-11 08:40:00 78.3 24.9 39.5 78.3 78.3 0.0 1.5 0.2 102.4 113.8 0.00 0.4760000 78.4
2021-06-11 08:45:00 79.7 24.5 40.3 79.7 79.7 0.0 0.8 0.1 17.4 88.7 0.00 0.4930000 78.5
2021-06-11 08:50:00 78.6 24.1 38.9 78.6 78.6 0.0 1.7 0.5 24.8 61.0 0.00 0.5060000 78.5
2021-06-11 08:55:00 78.7 22.7 37.5 78.7 78.7 0.0 1.9 0.6 90.4 50.5 0.00 0.5230000 78.6
2021-06-11 09:00:00 79.2 23.0 38.2 79.2 79.2 0.0 2.6 0.6 39.2 116.3 0.00 0.5380000 78.6
2021-06-11 09:05:00 79.8 22.4 38.0 79.8 79.8 1.2 1.2 0.1 46.4 67.3 0.00 0.5540000 78.7
2021-06-11 09:10:00 80.0 20.4 35.8 80.0 80.0 0.0 1.9 0.4 68.6 46.2 0.00 0.5700000 78.8
2021-06-11 09:15:00 80.5 20.1 35.8 80.5 80.5 1.5 2.6 1.1 54.6 55.2 0.00 0.5850000 78.9
2021-06-11 09:20:00 80.5 19.3 34.8 80.5 80.5 1.2 2.4 1.4 87.2 72.4 0.00 0.5130000 79.1
2021-06-11 09:25:00 81.8 20.9 37.9 81.8 81.8 0.0 0.8 0.0 67.3 103.4 0.00 0.1010000 79.2
2021-06-11 09:30:00 82.5 17.6 34.2 82.5 82.5 1.7 1.9 0.7 44.8 57.5 0.00 0.6180000 79.3
2021-06-11 09:35:00 81.6 11.9 23.8 81.6 81.6 0.0 3.3 1.0 3.6 28.2 0.00 0.6410000 79.5
2021-06-11 09:40:00 81.6 13.9 27.6 81.6 81.6 0.0 3.8 1.2 20.6 49.8 0.00 0.6550000 79.6
2021-06-11 09:45:00 83.2 12.5 26.3 83.2 83.2 2.1 2.1 0.6 13.3 84.1 0.00 0.6680000 79.8
2021-06-11 09:50:00 83.1 12.8 26.7 83.1 83.1 1.9 2.6 1.2 40.7 78.3 0.00 0.6750000 80.0
2021-06-11 09:55:00 83.1 13.4 28.0 83.1 83.1 2.1 3.7 1.3 37.8 49.5 0.00 0.6920000 80.1
2021-06-11 10:00:00 83.4 15.3 31.4 83.4 83.4 1.5 3.5 1.4 62.3 48.4 0.00 0.7050000 80.3
2021-06-11 10:05:00 83.0 12.9 26.9 83.0 83.0 0.0 3.1 1.1 43.7 38.2 0.00 0.7160000 80.5
2021-06-11 10:10:00 83.6 14.7 30.6 83.6 83.6 0.0 2.2 0.6 258.2 89.0 0.00 0.7290000 80.7
2021-06-11 10:15:00 83.4 12.7 26.9 83.4 83.4 1.9 3.3 1.6 55.0 49.9 0.00 0.7410000 80.9
2021-06-11 10:20:00 83.3 12.7 26.7 83.3 83.3 2.1 4.0 2.1 30.6 58.2 0.00 0.7520000 81.1
2021-06-11 10:25:00 84.1 12.3 26.6 84.1 84.1 1.2 2.4 0.9 43.6 51.9 0.00 0.7650000 81.3
2021-06-11 10:30:00 83.9 17.1 34.6 83.9 83.9 0.8 4.0 2.0 188.9 128.2 0.00 0.7740000 81.5
2021-06-11 10:35:00 84.6 10.9 24.0 84.6 84.6 2.1 2.6 0.9 37.4 88.8 0.00 0.7850000 81.7
2021-06-11 10:40:00 84.1 12.0 26.0 84.1 84.1 2.6 4.2 2.3 10.5 19.0 0.00 0.7930000 82.0
2021-06-11 10:45:00 84.8 12.2 27.0 84.8 84.8 3.1 3.5 1.3 40.2 54.1 0.00 0.8040000 82.2
2021-06-11 10:50:00 84.7 12.2 26.9 84.7 84.7 0.0 3.5 1.6 37.8 49.8 0.00 0.8150000 82.4
2021-06-11 10:55:00 84.6 10.9 24.0 84.6 84.6 0.8 3.5 1.2 64.1 70.5 0.00 0.8230000 82.6
2021-06-11 11:00:00 85.5 10.8 24.5 85.5 85.5 0.8 3.5 1.4 46.7 65.9 0.00 0.8330000 82.9
2021-06-11 11:05:00 86.2 10.3 24.0 86.2 86.2 0.0 0.0 0.0 255.0 0.0 0.00 0.8400000 83.1
2021-06-11 11:10:00 86.9 11.5 27.0 86.9 86.9 1.5 3.5 0.8 71.2 43.5 0.00 0.8500000 83.3
2021-06-11 11:15:00 88.6 11.3 28.0 88.6 88.6 0.8 1.9 0.6 183.2 67.1 0.00 0.8560000 83.6
2021-06-11 11:20:00 88.0 10.5 25.8 88.0 88.0 1.2 3.5 1.8 47.5 64.7 0.00 0.8640000 83.8
2021-06-11 11:25:00 87.3 10.2 24.5 87.3 87.3 2.2 3.5 1.8 61.8 49.1 0.00 0.8580000 84.0
2021-06-11 11:30:00 86.5 10.9 25.5 86.5 86.5 2.2 3.8 2.3 339.6 44.3 0.00 0.8650000 84.3
2021-06-11 11:35:00 87.2 13.1 30.5 87.2 87.2 1.3 2.6 0.9 46.6 75.5 0.00 0.8700000 84.5
2021-06-11 11:40:00 88.4 11.4 28.1 88.4 88.4 2.4 3.1 1.9 67.0 56.9 0.00 0.8860000 84.8
2021-06-11 11:45:00 89.2 11.6 29.1 89.2 89.2 3.5 3.5 1.8 181.1 84.2 0.00 0.8950000 85.0
2021-06-11 11:50:00 89.6 11.2 28.6 89.6 89.6 3.3 4.2 1.4 176.6 140.0 0.00 0.9000000 85.3
2021-06-11 11:55:00 88.7 10.2 25.6 88.7 88.7 0.8 3.7 1.3 57.9 153.4 0.00 0.9020000 85.6
2021-06-11 12:00:00 89.1 12.5 30.9 89.1 89.1 3.7 3.7 1.0 144.5 72.5 0.00 0.9070000 85.8
2021-06-11 12:05:00 87.5 12.2 29.0 87.5 87.5 1.5 4.7 2.2 50.7 194.1 0.00 0.9120000 86.1
2021-06-11 12:10:00 88.7 16.8 38.0 88.7 88.7 2.1 4.2 2.3 192.3 170.7 0.00 0.9150000 86.3
2021-06-11 12:15:00 89.2 9.7 24.6 89.2 89.2 1.5 4.0 2.1 197.0 130.0 0.00 0.9200000 86.6
2021-06-11 12:20:00 88.1 9.6 23.8 88.1 88.1 0.0 4.0 2.0 133.6 7.3 0.00 0.9230000 86.8
2021-06-11 12:25:00 87.7 11.4 27.4 87.7 87.7 3.7 5.5 2.1 176.3 182.8 0.00 0.9260000 87.1
2021-06-11 12:30:00 87.3 12.2 29.0 87.3 87.3 4.7 4.9 3.0 232.4 209.6 0.00 0.9280000 87.4
2021-06-11 12:35:00 87.9 11.2 27.2 87.9 87.9 0.0 4.9 1.9 281.4 225.3 0.00 0.9290000 87.6
2021-06-11 12:40:00 88.6 9.7 24.4 88.6 88.6 1.5 4.0 1.7 101.2 221.5 0.00 0.9310000 87.9
2021-06-11 12:45:00 89.9 10.9 28.1 89.9 89.9 1.9 3.8 1.4 108.0 73.5 0.00 0.9310000 88.2
2021-06-11 12:50:00 91.5 9.5 25.9 91.5 91.5 1.3 4.2 1.3 75.6 106.4 0.00 0.9340000 88.4
2021-06-11 12:55:00 91.0 10.1 27.2 91.0 91.0 3.7 6.3 2.8 49.1 85.8 0.00 0.9360000 88.7
2021-06-11 13:00:00 89.3 9.3 23.8 89.3 89.3 3.3 4.4 3.2 114.5 52.9 0.00 0.9350000 88.9
2021-06-11 13:05:00 88.9 11.5 28.6 88.9 88.9 2.4 5.5 3.0 31.1 44.0 0.00 0.9340000 89.2
2021-06-11 13:10:00 90.7 10.3 27.4 90.7 90.7 1.2 3.0 0.8 178.0 55.6 0.00 0.9390000 89.4
2021-06-11 13:15:00 91.0 10.8 28.7 91.0 91.0 1.5 3.3 1.6 192.5 151.9 0.00 0.9380000 89.7
2021-06-11 13:20:00 91.5 10.7 28.8 91.5 91.5 2.1 4.0 1.6 137.5 67.4 0.00 0.9380000 89.9
2021-06-11 13:25:00 92.2 8.7 24.5 92.2 92.2 1.5 2.8 1.2 23.2 57.0 0.00 0.9380000 90.2
2021-06-11 13:30:00 92.4 10.6 29.3 92.4 92.4 1.5 3.5 2.1 20.6 50.9 0.00 0.9390000 90.4
2021-06-11 13:35:00 92.4 9.0 25.4 92.4 92.4 3.0 4.2 1.6 180.7 162.3 0.00 0.9380000 90.6
2021-06-11 13:40:00 91.2 8.9 24.2 91.2 91.2 0.8 4.4 1.6 5.4 159.5 0.00 0.9350000 90.9
2021-06-11 13:45:00 92.8 13.5 35.6 92.8 92.8 0.0 4.9 1.2 109.2 122.3 0.00 0.9330000 91.1
2021-06-11 13:50:00 92.7 9.0 25.7 92.7 92.7 1.0 3.5 2.0 132.6 155.1 0.00 0.9310000 91.3
2021-06-11 13:55:00 92.7 9.4 26.5 92.7 92.7 3.8 3.8 1.2 188.4 154.4 0.00 0.9300000 91.6
2021-06-11 14:00:00 90.7 11.5 30.0 90.7 90.7 2.6 4.9 3.1 183.4 192.4 0.00 0.9280000 91.8
2021-06-11 14:05:00 91.0 14.5 36.1 91.0 91.0 1.9 4.4 2.5 166.3 161.3 0.00 0.9230000 92.0
2021-06-11 14:10:00 92.3 8.4 23.6 92.3 92.3 0.0 3.7 1.7 85.8 97.2 0.00 0.9200000 92.3
2021-06-11 14:15:00 92.6 12.4 33.4 92.6 92.6 3.0 4.6 2.4 180.0 157.5 0.00 0.9170000 92.5
2021-06-11 14:20:00 93.1 8.6 24.8 93.1 93.1 0.0 3.7 1.8 66.5 161.4 0.00 0.9110000 92.8
2021-06-11 14:25:00 93.3 8.0 23.2 93.3 93.3 1.9 4.0 2.4 66.0 82.3 0.00 0.9070000 93.0
2021-06-11 14:30:00 94.4 10.6 31.0 94.4 94.4 0.8 2.4 0.7 43.4 66.8 0.00 0.9020000 93.2
2021-06-11 14:35:00 94.6 8.5 25.7 94.6 94.6 3.1 3.7 2.1 65.9 66.7 0.00 0.8970000 93.4
2021-06-11 14:40:00 95.0 10.3 30.7 95.0 95.0 1.9 2.4 1.4 148.1 88.8 0.00 0.8910000 93.6
2021-06-11 14:45:00 94.7 6.8 20.5 94.7 94.7 0.0 4.6 1.6 129.2 141.0 0.00 0.8860000 93.8
2021-06-11 14:50:00 94.1 11.8 33.3 94.1 94.1 0.0 4.4 1.4 100.1 170.0 0.00 0.8800000 94.0
2021-06-11 14:55:00 95.8 7.9 24.7 95.8 95.8 1.3 2.8 1.1 87.5 73.1 0.00 0.8720000 94.3
2021-06-11 15:00:00 95.4 7.6 23.4 95.4 95.4 1.3 3.8 1.2 89.8 149.0 0.00 0.8680000 94.5
2021-06-11 15:05:00 96.2 6.6 20.9 96.2 96.2 1.0 3.3 1.6 126.9 91.4 0.00 0.8570000 94.7
2021-06-11 15:10:00 97.0 6.6 21.3 97.0 97.0 0.0 3.3 0.7 76.9 92.6 0.00 0.8500000 94.8
2021-06-11 15:15:00 97.1 7.7 25.2 97.1 97.1 0.8 4.4 1.2 120.6 100.2 0.00 0.8420000 95.0
2021-06-11 15:20:00 97.0 8.3 26.7 97.0 97.0 1.7 3.5 1.9 160.2 131.8 0.00 0.8320000 95.2
2021-06-11 15:25:00 97.1 5.8 18.4 97.1 97.1 1.0 2.6 1.2 183.5 93.4 0.00 0.8210000 95.4
2021-06-11 15:30:00 97.9 5.6 18.3 97.9 97.9 1.9 2.6 0.9 181.2 148.3 0.00 0.8140000 95.6
2021-06-11 15:35:00 97.9 5.8 19.1 97.9 97.9 0.0 5.8 1.0 142.9 119.3 0.00 0.8030000 95.7
2021-06-11 15:40:00 98.0 7.7 25.8 98.0 98.0 0.8 2.8 0.7 96.5 80.0 0.00 0.7920000 95.9
2021-06-11 15:45:00 98.8 6.5 22.2 98.8 98.8 0.0 2.4 1.1 343.2 94.9 0.00 0.7820000 96.0
2021-06-11 15:50:00 98.7 8.6 29.0 98.7 98.7 0.0 4.0 1.1 306.7 104.0 0.00 0.7710000 96.2
2021-06-11 15:55:00 97.1 7.4 24.2 97.1 97.1 3.5 4.9 2.4 46.1 51.0 0.00 0.7610000 96.3
2021-06-11 16:00:00 96.9 6.8 22.0 96.9 96.9 0.8 3.3 1.8 79.4 66.8 0.00 0.7510000 96.5
2021-06-11 16:05:00 97.7 6.0 19.7 97.7 97.7 0.0 2.6 1.1 166.1 61.5 0.00 0.7380000 96.6
2021-06-11 16:10:00 97.4 5.0 15.2 97.4 97.4 0.0 4.4 1.5 20.1 114.8 0.00 0.7270000 96.7
2021-06-11 16:15:00 98.1 6.9 23.1 98.1 98.1 0.0 2.2 0.3 167.8 139.7 0.00 0.7150000 96.7
2021-06-11 16:20:00 98.0 5.4 17.3 98.0 98.0 1.3 3.5 1.2 81.4 97.3 0.00 0.7020000 96.8
2021-06-11 16:25:00 98.1 5.7 18.6 98.1 98.1 1.9 2.8 0.7 33.8 43.4 0.00 0.6900000 96.8
2021-06-11 16:30:00 97.6 9.1 29.5 97.6 97.6 0.0 2.6 1.0 307.2 91.0 0.00 0.6760000 96.7
2021-06-11 16:35:00 97.5 5.8 18.8 97.5 97.5 0.8 4.4 0.8 65.1 134.7 0.00 0.6620000 96.7
2021-06-11 16:40:00 97.3 6.4 21.0 97.3 97.3 1.7 2.8 1.0 98.4 61.5 0.00 0.6480000 96.6
2021-06-11 16:45:00 98.0 6.4 21.2 98.0 98.0 0.0 4.0 1.6 31.7 55.6 0.00 0.6350000 96.5
2021-06-11 16:50:00 97.1 4.6 13.1 97.1 97.1 2.6 2.6 1.5 178.7 108.4 0.00 0.6200000 96.4
2021-06-11 16:55:00 97.2 5.1 15.7 97.2 97.2 2.6 3.1 1.3 19.0 70.8 0.00 0.6050000 96.3
2021-06-11 17:00:00 96.0 6.8 21.5 96.0 96.0 3.0 4.4 2.3 63.9 46.5 0.00 0.5910000 96.2
2021-06-11 17:05:00 95.4 5.7 16.6 95.4 95.4 3.0 4.0 3.1 343.1 43.0 0.00 0.5770000 96.1
2021-06-11 17:10:00 95.5 10.6 31.8 95.5 95.5 2.1 4.7 2.9 66.0 50.0 0.00 0.5590000 96.0
2021-06-11 17:15:00 96.8 7.3 23.8 96.8 96.8 4.2 4.2 1.2 43.0 79.2 0.00 0.5460000 95.9
2021-06-11 17:20:00 95.5 6.6 20.3 95.5 95.5 2.2 3.8 2.9 23.2 53.7 0.00 0.5300000 95.8
2021-06-11 17:25:00 95.1 9.2 28.1 95.1 95.1 3.1 4.4 3.2 27.9 43.4 0.00 0.5140000 95.7
2021-06-11 17:30:00 95.0 10.0 29.8 95.0 95.0 1.7 3.5 2.7 46.7 40.4 0.00 0.4980000 95.7
2021-06-11 17:35:00 95.7 9.1 28.1 95.7 95.7 2.4 3.7 1.9 49.8 46.1 0.00 0.4820000 95.7
2021-06-11 17:40:00 95.9 7.8 24.6 95.9 95.9 2.1 2.6 1.4 53.7 42.2 0.00 0.4660000 95.6
2021-06-11 17:45:00 95.9 9.1 28.4 95.9 95.9 1.0 3.7 2.1 59.0 42.1 0.00 0.4500000 95.6
2021-06-11 17:50:00 95.6 10.2 30.8 95.6 95.6 2.6 3.0 2.2 58.4 47.0 0.00 0.4340000 95.6
2021-06-11 17:55:00 95.5 8.1 25.1 95.5 95.5 2.6 4.4 2.2 53.9 69.5 0.00 0.4170000 95.5
2021-06-11 18:00:00 96.4 8.9 28.1 96.4 96.4 0.0 3.0 0.9 25.7 72.1 0.00 0.4020000 95.5
2021-06-11 18:05:00 96.8 8.3 26.8 96.8 96.8 3.0 3.3 0.4 61.7 60.2 0.00 0.3860000 95.5
2021-06-11 18:10:00 95.3 10.8 32.1 95.3 95.3 1.7 3.5 2.3 39.7 60.2 0.00 0.3700000 95.5
2021-06-11 18:15:00 94.9 9.4 28.3 94.9 94.9 3.3 4.0 2.7 65.8 58.3 0.00 0.3540000 95.5
2021-06-11 18:20:00 94.4 9.0 27.0 94.4 94.4 3.5 3.7 2.7 50.2 51.7 0.00 0.3380000 95.5
2021-06-11 18:25:00 94.9 10.4 30.7 94.9 94.9 0.0 3.3 1.2 37.3 52.5 0.00 0.3210000 95.5
2021-06-11 18:30:00 95.4 12.5 35.8 95.4 95.4 0.0 0.0 0.0 59.6 0.0 0.00 0.3040000 95.5
2021-06-11 18:35:00 94.9 9.7 29.2 94.9 94.9 2.2 3.3 1.8 31.5 59.5 0.00 0.2880000 95.5
2021-06-11 18:40:00 93.6 13.4 36.2 93.6 93.6 0.8 3.1 1.9 68.0 56.5 0.00 0.2720000 95.5
2021-06-11 18:45:00 92.9 12.8 34.5 92.9 92.9 0.0 2.4 0.9 38.9 39.0 0.00 0.2560000 95.4
2021-06-11 18:50:00 92.3 15.5 38.8 92.3 92.3 0.0 0.0 0.0 48.1 0.0 0.00 0.2400000 95.5
2021-06-11 18:55:00 92.5 14.4 37.0 92.5 92.5 0.0 1.7 0.2 209.0 75.4 0.00 0.2240000 95.5
2021-06-11 19:00:00 93.7 12.4 34.3 93.7 93.7 0.0 0.0 0.0 220.1 0.0 0.00 0.2090000 95.4
2021-06-11 19:05:00 93.3 14.2 37.4 93.3 93.3 0.0 0.8 0.0 174.7 185.0 0.00 0.1930000 95.3
2021-06-11 19:10:00 92.2 14.9 37.7 92.2 92.2 0.0 0.0 0.0 193.6 0.0 0.00 0.1770000 95.3
2021-06-11 19:15:00 92.2 16.0 39.5 92.2 92.2 0.0 0.0 0.0 43.0 0.0 0.00 0.1610000 95.3
2021-06-11 19:20:00 91.8 13.9 35.7 91.8 91.8 0.0 0.0 0.0 50.6 0.0 0.00 0.1470000 95.2
2021-06-11 19:25:00 91.1 14.3 35.8 91.1 91.1 0.0 0.0 0.0 59.8 0.0 0.00 0.1320000 95.1
2021-06-11 19:30:00 91.0 14.5 36.1 91.0 91.0 0.0 0.0 0.0 48.5 0.0 0.00 0.1180000 95.0
2021-06-11 19:35:00 90.4 15.0 36.5 90.4 90.4 0.0 0.0 0.0 268.8 0.0 0.00 0.1050000 94.9
2021-06-11 19:40:00 89.2 16.8 38.4 89.2 89.2 0.0 0.0 0.0 256.3 0.0 0.00 0.0880000 94.8
2021-06-11 19:45:00 87.7 19.4 40.8 87.7 87.7 0.0 0.0 0.0 185.1 0.0 0.00 0.0590000 94.7
2021-06-11 19:50:00 85.8 18.4 38.0 85.8 85.8 0.0 0.0 0.0 197.0 0.0 0.00 0.0180000 94.6
2021-06-11 19:55:00 84.9 18.6 37.5 84.9 84.9 0.0 0.0 0.0 187.9 0.0 0.00 0.0150000 94.5
2021-06-11 20:00:00 84.1 18.8 37.2 84.1 84.1 0.0 0.0 0.0 15.9 0.0 0.00 0.0130000 94.4
2021-06-11 20:05:00 83.9 17.6 35.3 83.9 83.9 0.0 0.0 0.0 8.5 0.0 0.00 0.0100000 94.2
2021-06-11 20:10:00 83.3 20.0 38.1 83.3 83.3 0.0 0.0 0.0 236.2 0.0 0.00 0.0080000 94.1
2021-06-11 20:15:00 82.3 19.5 36.5 82.3 82.3 0.0 0.0 0.0 189.5 0.0 0.00 0.0060000 94.0
2021-06-11 20:20:00 81.7 20.9 37.8 81.7 81.7 0.0 0.0 0.0 259.6 0.0 0.00 0.0040000 93.8
2021-06-11 20:25:00 80.7 23.3 39.8 80.7 80.7 0.0 0.0 0.0 240.0 0.0 0.00 0.0030000 93.6
2021-06-11 20:30:00 79.9 22.0 37.7 79.9 79.9 0.0 0.0 0.0 281.7 0.0 0.00 0.0010000 93.5
2021-06-11 20:35:00 79.3 21.7 36.9 79.3 79.3 0.0 0.0 0.0 248.8 0.0 0.00 0.0010000 93.4
2021-06-11 20:40:00 79.1 23.2 38.3 79.1 79.1 0.0 0.0 0.0 250.8 0.0 0.00 0.0000000 93.2
2021-06-11 20:45:00 78.7 21.6 36.2 78.7 78.7 0.0 0.0 0.0 259.9 0.0 0.00 0.0000000 93.1
2021-06-11 20:50:00 77.8 21.4 35.3 77.8 77.8 0.0 0.0 0.0 241.0 0.0 0.00 0.0000000 92.9
2021-06-11 20:55:00 77.5 21.1 34.7 77.5 77.5 0.0 0.0 0.0 241.4 0.0 0.00 0.0000000 92.8
2021-06-11 21:00:00 76.9 24.7 38.1 76.9 76.9 0.0 0.0 0.0 207.2 0.0 0.00 0.0000000 92.6
2021-06-11 21:05:00 76.2 26.0 38.8 76.2 76.2 0.0 0.0 0.0 105.2 0.0 0.00 0.0000000 92.4
2021-06-11 21:10:00 75.1 27.7 39.5 75.1 75.1 0.0 0.0 0.0 73.0 0.0 0.00 0.0000000 92.3
2021-06-11 21:15:00 74.4 24.7 36.0 74.4 74.4 0.0 0.0 0.0 224.3 0.0 0.00 0.0000000 92.1
2021-06-11 21:20:00 74.0 25.1 36.0 74.0 74.0 0.0 0.0 0.0 266.7 0.0 0.00 0.0000000 92.0
2021-06-11 21:25:00 73.7 24.4 35.1 73.7 73.7 0.0 0.0 0.0 234.7 0.0 0.00 0.0000000 91.8
2021-06-11 21:30:00 73.5 24.5 35.1 73.5 73.5 0.0 0.0 0.0 152.2 0.0 0.00 0.0000000 91.7
2021-06-11 21:35:00 72.8 29.5 39.1 72.8 72.8 0.0 0.0 0.0 157.7 0.0 0.00 0.0000000 91.5
2021-06-11 21:40:00 71.9 30.0 38.8 71.9 71.9 0.0 0.0 0.0 280.0 0.0 0.00 0.0000000 91.3
2021-06-11 21:45:00 71.4 29.9 38.3 71.4 71.4 0.0 0.0 0.0 280.8 0.0 0.00 0.0000000 91.2
2021-06-11 21:50:00 71.1 29.5 37.7 71.1 71.1 0.0 0.0 0.0 268.9 0.0 0.00 0.0000000 91.0
2021-06-11 21:55:00 71.3 27.7 36.2 71.3 71.3 0.8 1.2 0.1 297.4 304.7 0.00 0.0000000 90.9
2021-06-11 22:00:00 71.2 28.1 36.5 71.2 71.2 1.9 1.9 0.4 291.6 270.9 0.00 0.0000000 90.7
2021-06-11 22:05:00 71.0 29.4 37.5 71.0 71.0 0.0 1.5 0.1 212.8 295.6 0.00 0.0000000 90.6
2021-06-11 22:10:00 70.6 28.6 36.5 70.6 70.6 0.0 0.0 0.0 132.9 0.0 0.00 0.0000000 90.4
2021-06-11 22:15:00 70.2 27.9 35.5 70.2 70.2 0.0 0.0 0.0 325.2 0.0 0.00 0.0000000 90.3
2021-06-11 22:20:00 69.9 36.6 42.1 69.9 69.9 0.0 0.0 0.0 93.2 0.0 0.00 0.0000000 90.1
2021-06-11 22:25:00 69.3 32.0 38.1 69.3 69.3 0.0 0.0 0.0 275.2 0.0 0.00 0.0000000 90.0
2021-06-11 22:30:00 69.0 29.7 36.0 69.0 69.0 0.0 0.0 0.0 81.1 0.0 0.00 0.0000000 89.8
2021-06-11 22:35:00 69.0 31.5 37.5 69.0 69.0 0.0 0.0 0.0 109.2 0.0 0.00 0.0000000 89.7
2021-06-11 22:40:00 68.7 27.5 33.8 68.7 68.7 0.0 0.0 0.0 144.8 0.0 0.00 0.0000000 89.5
2021-06-11 22:45:00 69.1 27.3 34.0 69.1 69.1 0.0 2.6 0.8 221.7 190.9 0.00 0.0000000 89.4
2021-06-11 22:50:00 68.5 29.2 35.2 68.5 68.5 1.5 1.9 1.0 238.6 224.8 0.00 0.0000000 89.2
2021-06-11 22:55:00 68.4 25.9 32.1 68.4 68.4 2.1 2.1 1.2 192.0 224.8 0.00 0.0000000 89.1
2021-06-11 23:00:00 67.8 26.7 32.3 67.8 67.8 0.0 2.4 0.6 233.6 190.1 0.00 0.0000000 89.0
2021-06-11 23:05:00 67.9 27.6 33.2 67.9 67.9 0.0 0.0 0.0 344.0 0.0 0.00 0.0000000 88.8
2021-06-11 23:10:00 67.2 27.0 32.0 67.2 67.2 0.0 0.0 0.0 227.4 0.0 0.00 0.0000000 88.6
2021-06-11 23:15:00 67.1 27.0 32.0 67.1 67.1 1.9 1.9 0.2 248.3 246.3 0.00 0.0000000 88.5
2021-06-11 23:20:00 67.0 27.3 32.2 67.0 67.0 0.0 1.7 0.3 249.3 256.8 0.00 0.0000000 88.4
2021-06-11 23:25:00 66.7 28.3 32.8 66.7 66.7 0.0 0.0 0.0 323.1 0.0 0.00 0.0000000 88.3
2021-06-11 23:30:00 65.9 25.9 30.0 65.9 65.9 0.0 1.7 0.8 45.1 183.7 0.00 0.0000000 88.1
2021-06-11 23:35:00 64.7 38.1 38.6 64.7 64.7 0.0 1.7 0.2 221.8 103.6 0.00 0.0000000 88.0
2021-06-11 23:40:00 65.1 32.0 34.5 65.1 65.1 0.8 3.3 1.1 339.0 242.2 0.00 0.0000000 87.8
2021-06-11 23:45:00 65.1 33.9 36.0 65.1 65.1 1.2 2.6 1.0 169.2 104.8 0.00 0.0000000 87.7
2021-06-11 23:50:00 66.1 30.8 34.4 66.1 66.1 4.0 4.0 1.0 29.8 307.8 0.00 0.0000000 87.6
2021-06-11 23:55:00 67.3 23.5 28.7 67.3 67.3 0.0 4.9 1.9 230.0 325.2 0.00 0.0000000 87.5
2021-06-12 00:00:00 68.3 19.7 25.3 68.3 68.3 0.8 2.4 1.2 322.7 278.3 0.00 0.0000000 87.3

Data is courtesy of the NM Climate Center. DO NOT USE IN LEGAL PROCEEDINGS.